< < Back
Terminal Aerodrome Forecast


Current Version              Previous Versions:   1  2  3  4  5  6  7  8  9  

Terminal Aerodrome Forecast

755
FTUS42 KFFC 230500
TAFATL
TAF
KATL 230530Z 2306/2412 31005KT P6SM FEW250
     FM231500 32008KT P6SM FEW040
     FM231800 33009KT P6SM VCSH SCT050 PROB30 2319/2323 -TSRA
      BKN035CB
     FM240200 34007KT P6SM VCSH SCT070 SCT120
     FM240800 02006KT P6SM SCT035 BKN070=



Latest METAR

845
SAUS70 KWBC 230900
MTRATL
METAR KATL 230852Z 32004KT 10SM FEW250 24/22 A2999 RMK AO2 SLP145
T02440217 56012 $


USA.gov is the U.S. government's official web portal to all federal, state and local government web resources and services.